Time;durP1;ratioP1;P1;durP2;ratioP2;P2;SDS_P1;SDS_P2;PMS_P1;PMS_P2;Temp;Humidity;BMP_temperature;BMP_pressure;BME280_temperature;BME280_humidity;BME280_pressure;Samples;Min_cycle;Max_cycle;Signal;HPM_P1;HPM_P2
2024/02/16 00:01:25;;;;;;;3.10;1.90;;;;;;;;;;6269291;22;20440;-84
2024/02/16 00:03:57;;;;;;;2.17;1.50;;;;;;;;;;6305033;22;20368;-85
2024/02/16 00:06:25;;;;;;;2.60;1.33;;;;;;;;;;6303046;22;20450;-86
2024/02/16 00:08:52;;;;;;;1.60;1.50;;;;;;;;;;6258185;22;20434;-84
2024/02/16 00:11:22;;;;;;;1.53;1.40;;;;;;;;;;6257178;22;20491;-85
2024/02/16 00:13:52;;;;;;;1.90;1.67;;;;;;;;;;6258757;22;20411;-86
2024/02/16 00:16:23;;;;;;;2.70;1.60;;;;;;;;;;6287042;22;20924;-84
2024/02/16 00:18:54;;;;;;;2.20;1.70;;;;;;;;;;6261615;22;20404;-86
2024/02/16 00:21:28;;;;;;;3.63;1.80;;;;;;;;;;6262536;22;20436;-83
2024/02/16 00:24:02;;;;;;;2.90;1.60;;;;;;;;;;6288280;22;20414;-85
2024/02/16 00:26:31;;;;;;;3.23;2.00;;;;;;;;;;6287944;22;20517;-85
2024/02/16 00:28:59;;;;;;;4.87;1.87;;;;;;;;;;6288747;22;20418;-84
2024/02/16 00:31:26;;;;;;;2.13;1.60;;;;;;;;;;6267434;22;20443;-84
2024/02/16 00:33:57;;;;;;;1.63;1.53;;;;;;;;;;6299192;22;20363;-85
2024/02/16 00:36:34;;;;;;;2.87;1.60;;;;;;;;;;6275328;22;20459;-85
2024/02/16 00:39:09;;;;;;;1.70;1.60;;;;;;;;;;6270265;22;20474;-85
2024/02/16 00:41:40;;;;;;;3.63;1.73;;;;;;;;;;6290168;22;20431;-86
2024/02/16 00:44:09;;;;;;;2.93;1.43;;;;;;;;;;6288919;22;20408;-86
2024/02/16 00:46:49;;;;;;;2.70;1.90;;;;;;;;;;6264060;22;20446;-85
2024/02/16 00:49:22;;;;;;;3.27;1.60;;;;;;;;;;6262826;22;20873;-84
2024/02/16 00:51:57;;;;;;;2.90;2.00;;;;;;;;;;6261547;22;20792;-86
2024/02/16 00:54:27;;;;;;;1.77;1.50;;;;;;;;;;6261766;22;20959;-85
2024/02/16 00:57:02;;;;;;;3.70;1.93;;;;;;;;;;6261811;22;20411;-85
2024/02/16 00:59:32;;;;;;;2.13;1.90;;;;;;;;;;6262912;22;20395;-84
2024/02/16 01:02:02;;;;;;;3.60;1.60;;;;;;;;;;6271052;22;20437;-86
2024/02/16 01:04:31;;;;;;;2.40;1.70;;;;;;;;;;6278209;22;20384;-88
2024/02/16 01:07:03;;;;;;;4.63;2.40;;;;;;;;;;6302216;22;20447;-89
2024/02/16 01:09:38;;;;;;;2.80;2.00;;;;;;;;;;6293349;22;20399;-87
2024/02/16 01:12:05;;;;;;;3.37;1.77;;;;;;;;;;6260746;22;20475;-87
2024/02/16 01:14:43;;;;;;;1.40;1.30;;;;;;;;;;6262991;22;20423;-87
2024/02/16 01:17:12;;;;;;;2.50;1.90;;;;;;;;;;6289061;22;20869;-87
2024/02/16 01:19:42;;;;;;;2.20;1.33;;;;;;;;;;6263572;22;20435;-87
2024/02/16 01:22:11;;;;;;;1.87;1.53;;;;;;;;;;6260451;22;20431;-87
2024/02/16 01:24:51;;;;;;;1.60;1.50;;;;;;;;;;6287624;22;20406;-88
2024/02/16 01:27:18;;;;;;;1.93;1.70;;;;;;;;;;6259953;22;20504;-87
2024/02/16 01:29:50;;;;;;;1.17;1.07;;;;;;;;;;6261646;22;20376;-87
2024/02/16 01:32:23;;;;;;;1.63;1.50;;;;;;;;;;6260555;22;20424;-87
2024/02/16 01:34:58;;;;;;;1.80;1.70;;;;;;;;;;6288197;22;20403;-87
2024/02/16 01:37:28;;;;;;;2.70;1.60;;;;;;;;;;6262549;22;20398;-87
2024/02/16 01:40:03;;;;;;;4.90;1.67;;;;;;;;;;6262631;22;20442;-87
2024/02/16 01:42:32;;;;;;;2.17;1.60;;;;;;;;;;6287016;22;20475;-86
2024/02/16 01:45:12;;;;;;;2.23;1.97;;;;;;;;;;6264400;22;20391;-88
2024/02/16 01:47:43;;;;;;;1.70;1.40;;;;;;;;;;6260653;22;20466;-86
2024/02/16 01:50:17;;;;;;;2.13;1.60;;;;;;;;;;6286632;22;20434;-88
2024/02/16 01:52:57;;;;;;;4.60;1.47;;;;;;;;;;6262642;22;20411;-87
2024/02/16 01:55:35;;;;;;;1.67;1.33;;;;;;;;;;6259057;22;20478;-87
2024/02/16 01:58:07;;;;;;;1.73;1.63;;;;;;;;;;6258952;22;20407;-88
2024/02/16 02:00:40;;;;;;;2.97;1.27;;;;;;;;;;6286239;22;20451;-87
2024/02/16 02:03:13;;;;;;;3.27;2.03;;;;;;;;;;6283789;22;20795;-87
2024/02/16 02:09:33;;;;;;;2.27;1.23;;;;;;;;;;6161933;23;20444;-86
2024/02/16 02:12:17;;;;;;;2.53;1.30;;;;;;;;;;6259646;22;20419;-86
2024/02/16 02:14:47;;;;;;;2.50;1.60;;;;;;;;;;6262907;22;20420;-86
2024/02/16 02:17:25;;;;;;;1.60;1.50;;;;;;;;;;6267544;22;20479;-87
2024/02/16 02:20:24;;;;;;;1.70;1.53;;;;;;;;;;6266946;22;20418;-86
2024/02/16 02:23:06;;;;;;;3.93;1.67;;;;;;;;;;6263190;22;20400;-84
2024/02/16 02:25:48;;;;;;;2.77;1.73;;;;;;;;;;6267762;22;20435;-86
2024/02/16 02:28:25;;;;;;;2.07;1.53;;;;;;;;;;6261841;22;20422;-85
2024/02/16 02:30:55;;;;;;;4.30;1.97;;;;;;;;;;6259617;22;20450;-85
2024/02/16 02:33:23;;;;;;;3.70;1.60;;;;;;;;;;6258651;22;20403;-85
2024/02/16 02:36:08;;;;;;;2.87;2.10;;;;;;;;;;6258736;22;20411;-85
2024/02/16 02:39:02;;;;;;;1.60;1.50;;;;;;;;;;6269107;22;20411;-85
2024/02/16 02:41:30;;;;;;;3.67;1.97;;;;;;;;;;6260959;22;21006;-85
2024/02/16 02:44:05;;;;;;;2.17;1.40;;;;;;;;;;6261284;22;20388;-87
2024/02/16 02:46:32;;;;;;;1.90;1.50;;;;;;;;;;6274944;22;20470;-86
2024/02/16 02:49:03;;;;;;;1.47;1.37;;;;;;;;;;6276330;22;20427;-87
2024/02/16 02:51:40;;;;;;;2.17;1.97;;;;;;;;;;6303212;22;20433;-88
2024/02/16 02:54:07;;;;;;;3.60;1.73;;;;;;;;;;6304361;22;20375;-87
2024/02/16 02:56:47;;;;;;;2.33;1.57;;;;;;;;;;6278610;22;20419;-86
2024/02/16 02:59:18;;;;;;;2.00;1.63;;;;;;;;;;6277552;22;20433;-83
2024/02/16 03:01:55;;;;;;;1.70;1.57;;;;;;;;;;6303253;22;20430;-84
2024/02/16 03:04:23;;;;;;;3.13;1.83;;;;;;;;;;6269098;22;20412;-84
2024/02/16 03:06:53;;;;;;;1.90;1.70;;;;;;;;;;6267120;22;20436;-84
2024/02/16 03:09:23;;;;;;;1.30;1.20;;;;;;;;;;6258547;22;20432;-86
2024/02/16 03:12:00;;;;;;;2.97;1.93;;;;;;;;;;6257166;22;20990;-84
2024/02/16 03:14:30;;;;;;;2.80;1.70;;;;;;;;;;6255329;22;20473;-84
2024/02/16 03:16:57;;;;;;;1.60;1.33;;;;;;;;;;6256264;22;20877;-85
2024/02/16 03:19:26;;;;;;;1.80;1.33;;;;;;;;;;6256953;22;20411;-86
2024/02/16 03:21:55;;;;;;;1.73;1.53;;;;;;;;;;6258450;22;20443;-85
2024/02/16 03:24:22;;;;;;;1.63;1.40;;;;;;;;;;6285746;22;20502;-85
2024/02/16 03:26:51;;;;;;;2.13;1.73;;;;;;;;;;6285263;22;20933;-85
2024/02/16 03:29:24;;;;;;;3.47;1.57;;;;;;;;;;6259742;22;20389;-86
2024/02/16 03:31:56;;;;;;;1.57;1.40;;;;;;;;;;6286596;22;20446;-85
2024/02/16 03:34:34;;;;;;;2.40;2.13;;;;;;;;;;6262740;22;20983;-85
2024/02/16 03:37:05;;;;;;;3.00;1.70;;;;;;;;;;6287597;22;20406;-84
2024/02/16 03:39:45;;;;;;;2.27;1.50;;;;;;;;;;6260711;22;20411;-85
2024/02/16 03:42:13;;;;;;;2.23;1.93;;;;;;;;;;6286097;22;20457;-86
2024/02/16 03:44:43;;;;;;;3.17;1.50;;;;;;;;;;6288196;22;20893;-86
2024/02/16 03:47:26;;;;;;;3.40;1.70;;;;;;;;;;6288077;22;20467;-86
2024/02/16 03:50:21;;;;;;;1.80;1.70;;;;;;;;;;6247358;22;20475;-85
2024/02/16 03:52:52;;;;;;;1.60;1.50;;;;;;;;;;6262533;22;20453;-86
2024/02/16 03:55:23;;;;;;;2.77;1.80;;;;;;;;;;6261541;22;20415;-87
2024/02/16 03:57:53;;;;;;;2.73;1.90;;;;;;;;;;6261813;22;20471;-86
2024/02/16 04:00:26;;;;;;;2.97;1.83;;;;;;;;;;6287367;22;20419;-85
2024/02/16 04:02:53;;;;;;;1.27;1.20;;;;;;;;;;6260495;22;20408;-86
2024/02/16 04:05:22;;;;;;;3.40;1.93;;;;;;;;;;6261812;22;20728;-87
2024/02/16 04:08:01;;;;;;;4.03;2.10;;;;;;;;;;6287318;22;20443;-87
2024/02/16 04:10:32;;;;;;;2.77;1.80;;;;;;;;;;6262439;22;20434;-87
2024/02/16 04:13:01;;;;;;;2.10;1.57;;;;;;;;;;6260807;22;20465;-86
2024/02/16 04:15:28;;;;;;;2.60;1.93;;;;;;;;;;6260485;22;20403;-86
2024/02/16 04:17:56;;;;;;;1.77;1.10;;;;;;;;;;6288051;22;20411;-86
2024/02/16 04:20:27;;;;;;;1.47;1.37;;;;;;;;;;6260876;22;20431;-87
2024/02/16 04:22:56;;;;;;;3.43;1.80;;;;;;;;;;6288575;22;20392;-86
2024/02/16 04:25:23;;;;;;;1.97;1.60;;;;;;;;;;6260389;22;20471;-87
2024/02/16 04:27:54;;;;;;;1.90;1.80;;;;;;;;;;6261092;22;20516;-86
2024/02/16 04:30:21;;;;;;;2.20;1.83;;;;;;;;;;6265571;22;20399;-86
2024/02/16 04:32:51;;;;;;;2.97;1.73;;;;;;;;;;6302913;22;20415;-86
2024/02/16 04:35:21;;;;;;;5.10;2.03;;;;;;;;;;6276615;22;20471;-88
2024/02/16 04:37:55;;;;;;;2.03;1.63;;;;;;;;;;6272852;22;20524;-87
2024/02/16 04:40:28;;;;;;;2.30;1.80;;;;;;;;;;6263844;22;20450;-88
2024/02/16 04:42:59;;;;;;;3.00;2.20;;;;;;;;;;6263048;22;20761;-87
2024/02/16 04:45:43;;;;;;;2.50;2.20;;;;;;;;;;6265408;22;20491;-85
2024/02/16 04:48:13;;;;;;;2.33;1.83;;;;;;;;;;6263681;22;20435;-86
2024/02/16 04:50:54;;;;;;;6.87;2.43;;;;;;;;;;6264661;22;20439;-87
2024/02/16 04:53:27;;;;;;;3.43;2.30;;;;;;;;;;6259947;22;20418;-84
2024/02/16 04:55:58;;;;;;;2.50;1.80;;;;;;;;;;6261989;22;20423;-85
2024/02/16 04:58:31;;;;;;;3.20;2.03;;;;;;;;;;6258773;22;20419;-82
2024/02/16 05:01:02;;;;;;;3.73;2.20;;;;;;;;;;6260561;22;20434;-85
2024/02/16 05:03:29;;;;;;;1.70;1.60;;;;;;;;;;6256237;22;20442;-86
2024/02/16 05:06:05;;;;;;;2.70;1.60;;;;;;;;;;6261333;22;20430;-86
2024/02/16 05:08:33;;;;;;;2.73;2.00;;;;;;;;;;6259877;22;20454;-86
2024/02/16 05:11:02;;;;;;;3.60;2.07;;;;;;;;;;6260563;22;20686;-86
2024/02/16 05:13:29;;;;;;;4.23;2.40;;;;;;;;;;6254430;22;20511;-86
2024/02/16 05:15:57;;;;;;;3.13;1.97;;;;;;;;;;6259538;22;20411;-86
2024/02/16 05:18:30;;;;;;;3.10;2.40;;;;;;;;;;6260698;22;20408;-84
2024/02/16 05:21:02;;;;;;;2.20;2.00;;;;;;;;;;6256913;22;20439;-85
2024/02/16 05:23:37;;;;;;;2.40;2.00;;;;;;;;;;6282399;22;20411;-85
2024/02/16 05:26:10;;;;;;;4.63;1.60;;;;;;;;;;6257957;22;20396;-86
2024/02/16 05:28:43;;;;;;;4.30;2.37;;;;;;;;;;6257618;22;20953;-86
2024/02/16 05:31:16;;;;;;;3.20;2.10;;;;;;;;;;6255882;22;20478;-85
2024/02/16 05:33:46;;;;;;;6.23;2.20;;;;;;;;;;6253070;22;20388;-86
2024/02/16 05:36:27;;;;;;;3.63;2.50;;;;;;;;;;6281604;22;20904;-84
2024/02/16 05:38:56;;;;;;;1.67;1.57;;;;;;;;;;6252795;22;20384;-85
2024/02/16 05:41:31;;;;;;;3.00;2.27;;;;;;;;;;6252122;22;20447;-85
2024/02/16 05:44:32;;;;;;;3.03;1.97;;;;;;;;;;6275677;22;20411;-85
2024/02/16 05:47:22;;;;;;;1.70;1.60;;;;;;;;;;6227512;22;20933;-85
2024/02/16 05:49:54;;;;;;;3.30;2.10;;;;;;;;;;6264950;22;20877;-86
2024/02/16 05:52:31;;;;;;;2.53;2.10;;;;;;;;;;6275153;22;20503;-87
2024/02/16 05:54:59;;;;;;;3.57;2.20;;;;;;;;;;6273684;22;20418;-87
2024/02/16 05:57:32;;;;;;;3.50;2.20;;;;;;;;;;6263439;22;20414;-85
2024/02/16 06:00:13;;;;;;;2.70;2.40;;;;;;;;;;6267089;22;20387;-87
2024/02/16 06:02:54;;;;;;;2.63;2.00;;;;;;;;;;6267564;22;20838;-85
2024/02/16 06:05:22;;;;;;;2.47;1.93;;;;;;;;;;6261039;22;20437;-85
2024/02/16 06:07:56;;;;;;;2.17;1.97;;;;;;;;;;6288960;22;21025;-86
2024/02/16 06:11:01;;;;;;;2.80;1.90;;;;;;;;;;6267254;22;20742;-85
2024/02/16 06:13:53;;;;;;;2.67;1.97;;;;;;;;;;6265817;22;20382;-88
2024/02/16 06:16:23;;;;;;;3.70;1.90;;;;;;;;;;6260537;22;20479;-86
2024/02/16 06:19:05;;;;;;;;;;;;;;;;;;;;;
2024/02/16 06:22:20;;;;;;;4.20;1.97;;;;;;;;;;6287621;22;20427;-84
2024/02/16 06:25:15;;;;;;;1.70;1.60;;;;;;;;;;6176099;22;20411;-85
2024/02/16 06:28:16;;;;;;;3.33;1.90;;;;;;;;;;6261519;22;20439;-85
2024/02/16 06:31:15;;;;;;;2.33;2.13;;;;;;;;;;6229079;22;20456;-86
2024/02/16 06:33:42;;;;;;;3.07;1.83;;;;;;;;;;6259304;22;20655;-86
2024/02/16 06:36:12;;;;;;;3.10;2.20;;;;;;;;;;6262001;22;20412;-87
2024/02/16 06:38:50;;;;;;;1.87;1.70;;;;;;;;;;6268984;22;20463;-87
2024/02/16 06:41:19;;;;;;;2.20;1.87;;;;;;;;;;6261961;22;20415;-86
2024/02/16 06:43:49;;;;;;;1.73;1.63;;;;;;;;;;6259841;22;20400;-86
2024/02/16 06:46:22;;;;;;;1.80;1.60;;;;;;;;;;6260383;22;20400;-86
2024/02/16 06:48:56;;;;;;;2.53;1.43;;;;;;;;;;6260691;22;20470;-86
2024/02/16 06:51:28;;;;;;;2.37;2.10;;;;;;;;;;6286594;22;20454;-85
2024/02/16 06:54:02;;;;;;;2.50;1.67;;;;;;;;;;6285925;22;21562;-84
2024/02/16 06:56:36;;;;;;;3.03;1.77;;;;;;;;;;6259541;22;20949;-84
2024/02/16 06:59:09;;;;;;;2.43;2.00;;;;;;;;;;6288093;22;20403;-84
2024/02/16 07:01:50;;;;;;;3.50;3.20;;;;;;;;;;6246852;22;20424;-86
2024/02/16 07:04:32;;;;;;;2.53;2.10;;;;;;;;;;6261642;22;20845;-84
2024/02/16 07:07:06;;;;;;;2.23;2.03;;;;;;;;;;6264816;22;20439;-86
2024/02/16 07:09:39;;;;;;;1.90;1.70;;;;;;;;;;6262998;22;20399;-85
2024/02/16 07:12:11;;;;;;;3.20;1.97;;;;;;;;;;6260841;22;20484;-87
2024/02/16 07:14:46;;;;;;;3.23;1.97;;;;;;;;;;6262434;22;20398;-86
2024/02/16 07:18:36;;;;;;;2.87;2.20;;;;;;;;;;6287965;22;20419;-85
2024/02/16 07:20:52;;;;;;;4.27;1.93;;;;;;;;;;6276767;22;20522;-86
2024/02/16 07:23:51;;;;;;;3.47;2.10;;;;;;;;;;6261741;22;20497;-85
2024/02/16 07:26:29;;;;;;;3.80;2.00;;;;;;;;;;6263901;22;20499;-86
2024/02/16 07:29:07;;;;;;;3.03;2.07;;;;;;;;;;6264085;22;20739;-87
2024/02/16 07:31:45;;;;;;;;;;;;;;;;;;;;;
2024/02/16 07:34:28;;;;;;;3.40;1.83;;;;;;;;;;6302240;22;20407;-88
2024/02/16 07:37:10;;;;;;;;;;;;;;;;;;;;;
2024/02/16 07:43:34;;;;;;;3.37;1.97;;;;;;;;;;6291122;22;20370;-85
2024/02/16 07:46:15;;;;;;;2.37;2.17;;;;;;;;;;6262392;22;20395;-84
2024/02/16 07:49:03;;;;;;;2.50;1.70;;;;;;;;;;6262664;22;20507;-86
2024/02/16 07:51:34;;;;;;;2.70;2.10;;;;;;;;;;6264544;22;20411;-86
2024/02/16 07:54:16;;;;;;;3.90;2.10;;;;;;;;;;6263677;22;20849;-86
2024/02/16 07:56:49;;;;;;;2.90;2.03;;;;;;;;;;6261420;22;20407;-86
2024/02/16 07:59:23;;;;;;;8.90;1.90;;;;;;;;;;6290388;22;20395;-86
2024/02/16 08:01:55;;;;;;;4.93;2.03;;;;;;;;;;6276820;22;20469;-86
2024/02/16 08:04:26;;;;;;;4.77;2.37;;;;;;;;;;6276175;22;20404;-87
2024/02/16 08:06:54;;;;;;;4.00;1.87;;;;;;;;;;6274022;22;20502;-85
2024/02/16 08:09:34;;;;;;;2.87;2.10;;;;;;;;;;6265935;22;20438;-86
2024/02/16 08:12:13;;;;;;;2.90;2.10;;;;;;;;;;6265604;22;20921;-87
2024/02/16 08:14:46;;;;;;;2.30;2.00;;;;;;;;;;6287945;22;20453;-87
2024/02/16 08:17:23;;;;;;;;;;;;;;;;;;;;;
2024/02/16 08:19:54;;;;;;;2.30;2.10;;;;;;;;;;6290420;22;20778;-86
2024/02/16 08:22:26;;;;;;;2.67;2.40;;;;;;;;;;6267571;22;20431;-86
2024/02/16 08:24:56;;;;;;;4.57;2.50;;;;;;;;;;6265504;22;20400;-84
2024/02/16 08:27:27;;;;;;;2.77;1.70;;;;;;;;;;6264221;22;20440;-86
2024/02/16 08:30:03;;;;;;;4.87;2.00;;;;;;;;;;6269404;22;20389;-88
2024/02/16 08:32:31;;;;;;;4.93;2.30;;;;;;;;;;6275636;22;20411;-88
2024/02/16 08:35:03;;;;;;;2.30;2.10;;;;;;;;;;6302658;22;20421;-87
2024/02/16 08:37:52;;;;;;;1.63;1.53;;;;;;;;;;6277288;22;20388;-87
2024/02/16 08:40:28;;;;;;;2.33;2.13;;;;;;;;;;6279676;22;20427;-87
2024/02/16 08:43:14;;;;;;;6.23;2.10;;;;;;;;;;6277841;22;20482;-87
2024/02/16 08:45:54;;;;;;;3.03;2.20;;;;;;;;;;6280115;22;20388;-84
2024/02/16 08:48:30;;;;;;;3.50;2.20;;;;;;;;;;6279734;22;20422;-85
2024/02/16 08:51:01;;;;;;;3.23;2.23;;;;;;;;;;6278571;22;20419;-86
2024/02/16 08:53:31;;;;;;;3.80;3.27;;;;;;;;;;6266750;22;20589;-84
2024/02/16 08:55:58;;;;;;;2.37;2.07;;;;;;;;;;6274209;22;20441;-86
2024/02/16 08:58:31;;;;;;;2.87;1.97;;;;;;;;;;6263772;22;20455;-85
2024/02/16 09:00:58;;;;;;;2.67;2.20;;;;;;;;;;6287171;22;20493;-86
2024/02/16 09:03:28;;;;;;;2.30;2.10;;;;;;;;;;6285520;22;20411;-86
2024/02/16 09:05:55;;;;;;;2.50;2.20;;;;;;;;;;6286186;22;21054;-87
2024/02/16 09:08:33;;;;;;;2.10;1.90;;;;;;;;;;6291045;22;20427;-88
2024/02/16 09:11:06;;;;;;;2.60;2.40;;;;;;;;;;6298738;22;20424;-84
2024/02/16 09:13:44;;;;;;;2.27;1.90;;;;;;;;;;6297163;22;20432;-87
2024/02/16 09:16:48;;;;;;;3.40;1.67;;;;;;;;;;6295708;22;20496;-86
2024/02/16 09:19:28;;;;;;;6.53;2.30;;;;;;;;;;6297091;22;20400;-86
2024/02/16 09:22:21;;;;;;;3.70;2.50;;;;;;;;;;6281215;22;20454;-86
2024/02/16 09:24:59;;;;;;;2.17;1.97;;;;;;;;;;6294394;22;20411;-84
2024/02/16 09:27:29;;;;;;;2.27;1.93;;;;;;;;;;6290952;22;20423;-90
2024/02/16 09:29:57;;;;;;;2.90;2.60;;;;;;;;;;6301316;22;20422;-88
2024/02/16 09:32:34;;;;;;;5.60;2.70;;;;;;;;;;6302860;22;20419;-88
2024/02/16 09:35:16;;;;;;;2.50;1.80;;;;;;;;;;6302554;22;20473;-88
2024/02/16 09:37:44;;;;;;;3.60;2.37;;;;;;;;;;6304205;22;20376;-87
2024/02/16 09:40:13;;;;;;;3.03;2.37;;;;;;;;;;6299806;22;20441;-87
2024/02/16 09:42:52;;;;;;;2.60;2.40;;;;;;;;;;6289566;22;20416;-87
2024/02/16 09:45:22;;;;;;;1.80;1.70;;;;;;;;;;6289622;22;20423;-85
2024/02/16 09:47:55;;;;;;;2.77;2.00;;;;;;;;;;6291431;22;20443;-84
2024/02/16 09:50:31;;;;;;;2.47;2.27;;;;;;;;;;6290501;22;20454;-86
2024/02/16 09:52:59;;;;;;;3.13;2.10;;;;;;;;;;6287710;22;20450;-87
2024/02/16 09:55:54;;;;;;;6.50;2.80;;;;;;;;;;6288430;22;20432;-86
2024/02/16 09:58:28;;;;;;;3.70;2.20;;;;;;;;;;6287818;22;20482;-86
2024/02/16 10:00:59;;;;;;;6.10;2.03;;;;;;;;;;6288532;22;20451;-86
2024/02/16 10:03:52;;;;;;;2.47;2.30;;;;;;;;;;6287226;22;20422;-87
2024/02/16 10:06:36;;;;;;;5.37;2.20;;;;;;;;;;6284756;22;20410;-86
2024/02/16 10:09:22;;;;;;;2.30;2.10;;;;;;;;;;6287258;22;20443;-88
2024/02/16 10:11:52;;;;;;;2.53;2.20;;;;;;;;;;6284034;22;20423;-88
2024/02/16 10:14:26;;;;;;;3.50;2.40;;;;;;;;;;6285432;22;20693;-87
2024/02/16 10:17:09;;;;;;;3.03;2.30;;;;;;;;;;6288843;22;20425;-86
2024/02/16 10:19:39;;;;;;;2.93;2.00;;;;;;;;;;6262943;22;20403;-86
2024/02/16 10:22:13;;;;;;;4.00;2.33;;;;;;;;;;6286785;22;20507;-87
2024/02/16 10:24:51;;;;;;;4.23;2.50;;;;;;;;;;6288071;22;20403;-86
2024/02/16 10:27:21;;;;;;;3.27;2.07;;;;;;;;;;6288174;22;20418;-86
2024/02/16 10:30:07;;;;;;;2.50;2.30;;;;;;;;;;6287338;22;20373;-87
2024/02/16 10:32:48;;;;;;;3.40;2.60;;;;;;;;;;6287025;22;20411;-85
2024/02/16 10:35:24;;;;;;;4.77;2.63;;;;;;;;;;6287314;22;20384;-87
2024/02/16 10:37:55;;;;;;;4.60;2.03;;;;;;;;;;6286736;22;20383;-86
2024/02/16 10:40:27;;;;;;;2.70;2.10;;;;;;;;;;6282859;22;20502;-85
2024/02/16 10:42:56;;;;;;;4.07;2.63;;;;;;;;;;6286214;22;20415;-85
2024/02/16 10:45:26;;;;;;;4.47;2.63;;;;;;;;;;6289083;22;20444;-86
2024/02/16 10:47:58;;;;;;;6.27;2.47;;;;;;;;;;6289952;22;20435;-86
2024/02/16 10:50:29;;;;;;;4.93;2.87;;;;;;;;;;6295084;22;20514;-87
2024/02/16 10:52:57;;;;;;;3.80;3.03;;;;;;;;;;6295141;22;20424;-88
2024/02/16 10:55:28;;;;;;;3.40;2.80;;;;;;;;;;6294731;22;20442;-87
2024/02/16 10:58:00;;;;;;;3.03;2.60;;;;;;;;;;6292038;22;20415;-90
2024/02/16 11:00:34;;;;;;;6.70;2.50;;;;;;;;;;6291265;22;20411;-88
2024/02/16 11:03:06;;;;;;;3.20;2.20;;;;;;;;;;6289334;22;20438;-86
2024/02/16 11:05:35;;;;;;;3.00;2.10;;;;;;;;;;6290822;22;20448;-88
2024/02/16 11:08:04;;;;;;;3.70;2.87;;;;;;;;;;6290857;22;20436;-85
2024/02/16 11:10:34;;;;;;;4.03;3.00;;;;;;;;;;6288982;22;20427;-87
2024/02/16 11:13:08;;;;;;;5.00;2.73;;;;;;;;;;6284065;22;20404;-87
2024/02/16 11:15:36;;;;;;;4.20;2.73;;;;;;;;;;6287105;22;20800;-87
2024/02/16 11:18:06;;;;;;;6.27;3.10;;;;;;;;;;6287521;22;20471;-88
2024/02/16 11:20:45;;;;;;;2.73;2.43;;;;;;;;;;6286885;22;20812;-86
2024/02/16 11:23:29;;;;;;;3.13;2.77;;;;;;;;;;6284393;22;20507;-88
2024/02/16 11:26:02;;;;;;;3.60;2.40;;;;;;;;;;6285139;22;20434;-88
2024/02/16 11:28:34;;;;;;;4.60;3.30;;;;;;;;;;6284001;22;21043;-88
2024/02/16 11:31:07;;;;;;;3.80;3.17;;;;;;;;;;6285368;22;20428;-87
2024/02/16 11:33:45;;;;;;;7.37;2.67;;;;;;;;;;6285234;22;20406;-87
2024/02/16 11:36:26;;;;;;;2.83;2.63;;;;;;;;;;6279991;22;20434;-87
2024/02/16 11:39:08;;;;;;;6.73;3.63;;;;;;;;;;6300368;22;20505;-87
2024/02/16 11:41:51;;;;;;;3.13;2.83;;;;;;;;;;6303418;22;20415;-89
2024/02/16 11:44:40;;;;;;;3.67;3.10;;;;;;;;;;6302670;22;20454;-86
2024/02/16 11:47:19;;;;;;;3.63;2.90;;;;;;;;;;6300565;22;20408;-84
2024/02/16 11:50:01;;;;;;;5.23;3.40;;;;;;;;;;6300893;22;20451;-86
2024/02/16 11:52:48;;;;;;;4.20;2.70;;;;;;;;;;6296200;22;20396;-85
2024/02/16 11:55:37;;;;;;;3.93;2.67;;;;;;;;;;6292633;22;20766;-88
2024/02/16 11:58:10;;;;;;;6.63;3.37;;;;;;;;;;6271621;22;20503;-87
2024/02/16 12:01:03;;;;;;;4.17;2.93;;;;;;;;;;6293652;22;20489;-85
2024/02/16 12:03:43;;;;;;;6.90;3.20;;;;;;;;;;6290011;22;20407;-87
2024/02/16 12:06:22;;;;;;;3.60;2.80;;;;;;;;;;6287961;22;20411;-87
2024/02/16 12:09:20;;;;;;;8.40;3.10;;;;;;;;;;6287535;22;20423;-87
2024/02/16 12:11:55;;;;;;;5.00;3.43;;;;;;;;;;6288375;22;20423;-87
2024/02/16 12:14:28;;;;;;;4.40;3.10;;;;;;;;;;6287524;22;20411;-87
2024/02/16 12:16:59;;;;;;;9.10;3.40;;;;;;;;;;6289244;22;20404;-88
2024/02/16 12:19:51;;;;;;;5.07;3.17;;;;;;;;;;6292721;22;20408;-87
2024/02/16 12:22:40;;;;;;;4.87;2.83;;;;;;;;;;6288628;22;20409;-88
2024/02/16 12:25:24;;;;;;;4.27;3.80;;;;;;;;;;6299984;22;20391;-88
2024/02/16 12:27:56;;;;;;;5.70;3.60;;;;;;;;;;6281766;22;20726;-86
2024/02/16 12:30:39;;;;;;;5.90;3.53;;;;;;;;;;6275954;22;20485;-87
2024/02/16 12:33:16;;;;;;;4.97;3.60;;;;;;;;;;6296184;22;20415;-88
2024/02/16 12:36:00;;;;;;;4.53;3.30;;;;;;;;;;6298176;22;20388;-84
2024/02/16 12:38:40;;;;;;;5.63;3.50;;;;;;;;;;6296724;22;20399;-87
2024/02/16 12:41:24;;;;;;;4.87;3.77;;;;;;;;;;6296805;22;20446;-86
2024/02/16 12:43:58;;;;;;;7.00;4.43;;;;;;;;;;6296430;22;20478;-87
2024/02/16 12:46:28;;;;;;;5.57;4.17;;;;;;;;;;6290982;22;20392;-86
2024/02/16 12:49:06;;;;;;;6.27;4.80;;;;;;;;;;6262371;22;20432;-87
2024/02/16 12:51:44;;;;;;;5.70;4.17;;;;;;;;;;6289894;22;20428;-87
2024/02/16 12:54:23;;;;;;;4.70;4.00;;;;;;;;;;6288611;22;20893;-87
2024/02/16 12:57:02;;;;;;;6.00;4.33;;;;;;;;;;6290410;22;20434;-87
2024/02/16 12:59:38;;;;;;;3.40;3.10;;;;;;;;;;6288276;22;20403;-87
2024/02/16 13:02:16;;;;;;;6.40;3.93;;;;;;;;;;6263127;22;20424;-87
2024/02/16 13:05:03;;;;;;;6.20;3.60;;;;;;;;;;6280346;22;20412;-86
2024/02/16 13:07:34;;;;;;;4.27;3.43;;;;;;;;;;6233295;23;20407;-86
2024/02/16 13:10:04;;;;;;;7.00;3.87;;;;;;;;;;6233992;23;20460;-89
2024/02/16 13:12:33;;;;;;;6.90;3.70;;;;;;;;;;6201477;23;20440;-87
2024/02/16 13:15:05;;;;;;;5.07;4.10;;;;;;;;;;6227704;23;20482;-88
2024/02/16 13:17:46;;;;;;;5.23;3.40;;;;;;;;;;6201440;23;20409;-86
2024/02/16 13:20:27;;;;;;;6.20;3.53;;;;;;;;;;6229867;23;20457;-86
2024/02/16 13:23:36;;;;;;;3.57;2.90;;;;;;;;;;6170471;23;20465;-86
2024/02/16 13:26:10;;;;;;;6.03;3.33;;;;;;;;;;6188902;23;20509;-84
2024/02/16 13:28:47;;;;;;;4.50;3.80;;;;;;;;;;6197429;23;20441;-86
2024/02/16 13:31:47;;;;;;;5.80;3.50;;;;;;;;;;6190854;23;20429;-87
2024/02/16 13:34:31;;;;;;;8.10;3.97;;;;;;;;;;6189143;23;20401;-86
2024/02/16 13:37:13;;;;;;;6.93;4.57;;;;;;;;;;6191721;23;20397;-85
2024/02/16 13:40:14;;;;;;;6.97;4.40;;;;;;;;;;6191671;23;20394;-85
2024/02/16 13:43:11;;;;;;;8.87;5.20;;;;;;;;;;6194891;23;20474;-86
2024/02/16 13:45:50;;;;;;;5.20;4.57;;;;;;;;;;6189202;23;20409;-83
2024/02/16 13:48:41;;;;;;;12.07;5.77;;;;;;;;;;6188397;23;20424;-86
2024/02/16 13:51:10;;;;;;;6.17;3.80;;;;;;;;;;6187058;23;20536;-85
2024/02/16 13:53:56;;;;;;;5.70;4.40;;;;;;;;;;6184449;23;20441;-87
2024/02/16 13:56:47;;;;;;;4.90;3.77;;;;;;;;;;6190783;23;21133;-87
2024/02/16 13:59:17;;;;;;;4.97;4.23;;;;;;;;;;6192401;23;20493;-85
2024/02/16 14:01:54;;;;;;;9.43;4.70;;;;;;;;;;6214574;23;20444;-84
2024/02/16 14:04:31;;;;;;;6.13;4.43;;;;;;;;;;6190123;23;21142;-86
2024/02/16 14:07:09;;;;;;;7.50;4.60;;;;;;;;;;6191441;23;20412;-85
2024/02/16 14:09:54;;;;;;;5.07;4.00;;;;;;;;;;6193599;23;20416;-86
2024/02/16 14:12:25;;;;;;;5.80;4.80;;;;;;;;;;6195513;23;20425;-87
2024/02/16 14:14:55;;;;;;;9.03;4.73;;;;;;;;;;6200384;23;20409;-87
2024/02/16 14:17:33;;;;;;;5.20;4.03;;;;;;;;;;6229007;23;20409;-86
2024/02/16 14:23:02;;;;;;;7.47;4.37;;;;;;;;;;6223091;23;20436;-86
2024/02/16 14:25:58;;;;;;;4.03;3.63;;;;;;;;;;6213433;23;20461;-85
2024/02/16 14:28:41;;;;;;;5.27;4.17;;;;;;;;;;6148030;23;20435;-88
2024/02/16 14:31:26;;;;;;;6.07;5.47;;;;;;;;;;6166496;23;20498;-85
2024/02/16 14:34:16;;;;;;;3.20;2.90;;;;;;;;;;6193141;23;20413;-87
2024/02/16 14:37:07;;;;;;;5.53;3.10;;;;;;;;;;6193957;23;20771;-84
2024/02/16 14:39:58;;;;;;;4.57;3.40;;;;;;;;;;6195136;23;20422;-86
2024/02/16 14:46:21;;;;;;;5.60;3.00;;;;;;;;;;6257950;22;20951;-86
2024/02/16 14:49:11;;;;;;;3.97;3.40;;;;;;;;;;6280449;22;20439;-84
2024/02/16 14:52:33;;;;;;;4.60;3.50;;;;;;;;;;6255505;22;20424;-83
2024/02/16 14:55:51;;;;;;;4.80;3.43;;;;;;;;;;6208893;22;20410;-86
2024/02/16 15:01:46;;;;;;;4.90;3.60;;;;;;;;;;6250834;22;20438;-85
2024/02/16 15:04:41;;;;;;;4.10;3.33;;;;;;;;;;6279669;22;20519;-86
2024/02/16 15:07:22;;;;;;;6.30;4.20;;;;;;;;;;6273745;22;20410;-84
2024/02/16 15:10:14;;;;;;;4.67;3.87;;;;;;;;;;6277629;22;20440;-86
2024/02/16 15:13:05;;;;;;;7.20;5.10;;;;;;;;;;6279058;22;20408;-86
2024/02/16 15:15:53;;;;;;;5.50;4.47;;;;;;;;;;6277156;22;20901;-86
2024/02/16 15:18:38;;;;;;;6.27;4.60;;;;;;;;;;6280811;22;20426;-86
2024/02/16 15:21:08;;;;;;;5.10;4.33;;;;;;;;;;6292603;22;20418;-88
2024/02/16 15:23:53;;;;;;;;;;;;;;;;;;;;;
2024/02/16 15:26:32;;;;;;;4.40;3.97;;;;;;;;;;6287430;22;20435;-88
2024/02/16 15:29:19;;;;;;;6.27;4.60;;;;;;;;;;6282411;22;20510;-86
2024/02/16 15:31:52;;;;;;;5.63;4.43;;;;;;;;;;6278297;22;20474;-86
2024/02/16 15:37:48;;;;;;;5.03;4.53;;;;;;;;;;6140823;23;20498;-84
2024/02/16 15:43:38;;;;;;;5.10;4.60;;;;;;;;;;6152572;23;20520;-87
2024/02/16 15:46:41;;;;;;;6.87;5.57;;;;;;;;;;6110768;23;20450;-85
2024/02/16 15:49:31;;;;;;;5.60;5.10;;;;;;;;;;6122738;23;20477;-85
2024/02/16 15:55:50;;;;;;;4.67;4.27;;;;;;;;;;6132815;23;20422;-86
2024/02/16 15:58:59;;;;;;;;;;;;;;;;;;;;;
2024/02/16 16:02:03;;;;;;;4.50;4.10;;;;;;;;;;6276803;22;20416;-86
2024/02/16 16:08:16;;;;;;;4.10;3.80;;;;;;;;;;6296277;22;20379;-86
2024/02/16 16:11:02;;;;;;;5.10;4.00;;;;;;;;;;6295849;22;20514;-86
2024/02/16 16:14:04;;;;;;;4.40;4.00;;;;;;;;;;6292376;22;20449;-86
2024/02/16 16:16:53;;;;;;;4.90;4.50;;;;;;;;;;6280475;22;20434;-85
2024/02/16 16:19:28;;;;;;;3.07;2.87;;;;;;;;;;6280716;22;20408;-85